logo
Rechercher aéroport 
image banner adimage banner adimage banner ad
image banner ad

HKGA - Garissa

Situé à Mororo, Kenya

ICAO - HKGA, IATA - GAS

Données fournies par Airmate  

Information générale

Coordonnées: S0°27'44" E39°38'53"
Élévation : 475 feet MSL.
Variation magnétique : 0° East
Voir autres Aéroports à North-Eastern Province

Données opérationnelles

Special qualification required
Heure actuelle UTC:
Heure actuelle locale:
Météo
METAR: HKGA 290700Z 18022KT SKC 30/17 Q1015
Voir NOTAMs / SUP AIP / TFR affectant cet aéroport [VIEW]
Fréquences de communication: [VIEW]

Pistes:

Identifiant RWYQFULongueur (ft)Largeur (ft)SurfaceLDA (ft)
17393775UNK
35393775UNK

Coordonnées de l'aéroport

Adresse: Mororo Kenya

Vue satellite de HKGA